Time;durP1;ratioP1;P1;durP2;ratioP2;P2;SDS_P1;SDS_P2;PMS_P1;PMS_P2;Temp;Humidity;BMP_temperature;BMP_pressure;BME280_temperature;BME280_humidity;BME280_pressure;Samples;Min_cycle;Max_cycle;Signal;HPM_P1;HPM_P2
2021/07/30 00:00:01;;;;;;;9.25;3.47;;;;;;;;;;5108965;28;20048;-66
2021/07/30 00:02:27;;;;;;;7.65;4.55;;;;;;;;;;5099707;28;20043;-66
2021/07/30 00:04:53;;;;;;;12.00;5.00;;;;;;;;;;5111770;28;20032;-66
2021/07/30 00:07:19;;;;;;;10.93;3.80;;;;;;;;;;5106269;28;20040;-66
2021/07/30 00:09:45;;;;;;;9.15;4.22;;;;;;;;;;5090209;28;20048;-66
2021/07/30 00:12:11;;;;;;;9.65;4.40;;;;;;;;;;5108211;28;20031;-66
2021/07/30 00:14:38;;;;;;;10.05;4.78;;;;;;;;;;5119458;28;20039;-66
2021/07/30 00:17:04;;;;;;;9.48;4.53;;;;;;;;;;5102654;28;20039;-66
2021/07/30 00:19:30;;;;;;;9.38;4.15;;;;;;;;;;5110182;28;20062;-66
2021/07/30 00:21:56;;;;;;;10.32;4.40;;;;;;;;;;5109301;28;20328;-66
2021/07/30 00:24:22;;;;;;;9.10;4.38;;;;;;;;;;5105985;28;20105;-66
2021/07/30 00:26:50;;;;;;;11.48;5.30;;;;;;;;;;5098230;28;20132;-66
2021/07/30 00:29:16;;;;;;;8.48;4.40;;;;;;;;;;5114011;28;20058;-66
2021/07/30 00:31:42;;;;;;;10.57;5.65;;;;;;;;;;5106079;28;20616;-66
2021/07/30 00:34:09;;;;;;;10.50;4.68;;;;;;;;;;5083691;27;20055;-66
2021/07/30 00:36:35;;;;;;;12.40;4.70;;;;;;;;;;5107966;27;20035;-66
2021/07/30 00:39:01;;;;;;;10.18;5.35;;;;;;;;;;5120414;27;20651;-66
2021/07/30 00:41:27;;;;;;;9.48;5.18;;;;;;;;;;5116097;27;20042;-66
2021/07/30 00:43:54;;;;;;;15.95;4.97;;;;;;;;;;5104148;27;20088;-66
2021/07/30 00:46:20;;;;;;;9.65;5.22;;;;;;;;;;5116674;27;20054;-66
2021/07/30 00:48:46;;;;;;;8.63;4.90;;;;;;;;;;5110476;27;20046;-66
2021/07/30 00:51:14;;;;;;;11.75;5.20;;;;;;;;;;5114531;27;20059;-66
2021/07/30 00:53:40;;;;;;;9.68;5.28;;;;;;;;;;5099239;27;20110;-66
2021/07/30 00:56:07;;;;;;;10.65;5.20;;;;;;;;;;5116647;27;20439;-66
2021/07/30 00:58:34;;;;;;;10.43;5.40;;;;;;;;;;5107973;27;20136;-66
2021/07/30 01:01:00;;;;;;;14.35;5.30;;;;;;;;;;5108257;27;20438;-66
2021/07/30 01:03:28;;;;;;;11.02;5.57;;;;;;;;;;5108218;27;20121;-66
2021/07/30 01:05:54;;;;;;;11.32;5.57;;;;;;;;;;5116016;27;20047;-66
2021/07/30 01:08:21;;;;;;;9.27;5.30;;;;;;;;;;5105039;27;20031;-66
2021/07/30 01:10:47;;;;;;;11.73;6.05;;;;;;;;;;5107949;27;20048;-66
2021/07/30 01:13:13;;;;;;;10.02;5.40;;;;;;;;;;5109748;27;23933;-66
2021/07/30 01:15:39;;;;;;;12.50;6.22;;;;;;;;;;5113341;27;20119;-66
2021/07/30 01:18:05;;;;;;;9.43;5.60;;;;;;;;;;5102589;27;20051;-66
2021/07/30 01:20:36;;;;;;;13.27;6.28;;;;;;;;;;5116693;27;20558;-66
2021/07/30 01:23:03;;;;;;;12.13;7.25;;;;;;;;;;5108184;27;20419;-66
2021/07/30 01:25:29;;;;;;;14.35;6.60;;;;;;;;;;5113239;27;20418;-66
2021/07/30 01:27:56;;;;;;;9.10;5.90;;;;;;;;;;5115895;27;20039;-66
2021/07/30 01:30:23;;;;;;;12.63;6.40;;;;;;;;;;5108032;27;20044;-66
2021/07/30 01:32:49;;;;;;;12.13;6.80;;;;;;;;;;5115566;27;20096;-66
2021/07/30 01:35:15;;;;;;;11.15;6.32;;;;;;;;;;5107666;27;20112;-66
2021/07/30 01:37:42;;;;;;;14.18;7.10;;;;;;;;;;5107335;27;20039;-66
2021/07/30 01:40:12;;;;;;;13.23;6.35;;;;;;;;;;5107032;27;20032;-66
2021/07/30 01:42:39;;;;;;;10.05;6.70;;;;;;;;;;5110455;27;20143;-66
2021/07/30 01:45:05;;;;;;;13.85;7.53;;;;;;;;;;5106890;27;20602;-66
2021/07/30 01:47:32;;;;;;;11.25;6.72;;;;;;;;;;5102596;27;20116;-66
2021/07/30 01:49:58;;;;;;;12.27;6.75;;;;;;;;;;5111911;27;20456;-66
2021/07/30 01:52:24;;;;;;;16.13;7.32;;;;;;;;;;5111754;27;20043;-66
2021/07/30 01:54:50;;;;;;;10.32;6.88;;;;;;;;;;5102327;27;20048;-66
2021/07/30 01:57:18;;;;;;;11.40;7.65;;;;;;;;;;5116854;27;20040;-66
2021/07/30 01:59:44;;;;;;;12.55;7.68;;;;;;;;;;5107153;27;20051;-66
2021/07/30 02:02:11;;;;;;;11.43;6.90;;;;;;;;;;5103256;27;20077;-66
2021/07/30 02:04:37;;;;;;;16.75;7.50;;;;;;;;;;5111455;27;20391;-66
2021/07/30 02:07:03;;;;;;;11.82;7.20;;;;;;;;;;5105382;27;20111;-66
2021/07/30 02:09:29;;;;;;;17.15;8.38;;;;;;;;;;5114129;27;20071;-66
2021/07/30 02:11:56;;;;;;;12.00;7.50;;;;;;;;;;5105207;27;20047;-66
2021/07/30 02:14:28;;;;;;;14.18;7.32;;;;;;;;;;5113984;27;20098;-66
2021/07/30 02:17:00;;;;;;;13.27;7.93;;;;;;;;;;5106631;27;20122;-66
2021/07/30 02:19:27;;;;;;;15.60;7.88;;;;;;;;;;5110603;27;20039;-66
2021/07/30 02:21:54;;;;;;;13.48;8.02;;;;;;;;;;5102042;27;20490;-66
2021/07/30 02:24:21;;;;;;;13.60;7.38;;;;;;;;;;5107799;27;20035;-66
2021/07/30 02:26:47;;;;;;;12.57;7.75;;;;;;;;;;5103759;27;20070;-66
2021/07/30 02:29:13;;;;;;;13.98;8.38;;;;;;;;;;5109224;27;20039;-66
2021/07/30 02:31:39;;;;;;;15.50;8.05;;;;;;;;;;5104568;27;20039;-66
2021/07/30 02:34:09;;;;;;;13.57;8.30;;;;;;;;;;5112782;27;20266;-66
2021/07/30 02:36:36;;;;;;;12.70;7.78;;;;;;;;;;5104965;27;20430;-66
2021/07/30 02:39:02;;;;;;;14.35;8.10;;;;;;;;;;5109173;27;20037;-66
2021/07/30 02:41:28;;;;;;;13.35;8.57;;;;;;;;;;5110624;27;20043;-66
2021/07/30 02:43:57;;;;;;;18.98;9.18;;;;;;;;;;5117614;27;20050;-65
2021/07/30 02:46:23;;;;;;;18.13;9.00;;;;;;;;;;5110916;27;20038;-65
2021/07/30 02:48:49;;;;;;;15.65;8.68;;;;;;;;;;5104677;27;20044;-65
2021/07/30 02:51:16;;;;;;;14.02;8.70;;;;;;;;;;5110967;27;20046;-65
2021/07/30 02:53:42;;;;;;;16.63;8.77;;;;;;;;;;5097194;27;20023;-65
2021/07/30 02:56:09;;;;;;;14.32;8.75;;;;;;;;;;5108670;27;20055;-65
2021/07/30 02:58:38;;;;;;;15.32;9.30;;;;;;;;;;5110310;27;20043;-65
2021/07/30 03:01:05;;;;;;;13.15;9.18;;;;;;;;;;5112877;27;20081;-65
2021/07/30 03:03:31;;;;;;;15.60;9.25;;;;;;;;;;5104614;27;20114;-65
2021/07/30 03:06:01;;;;;;;19.15;9.40;;;;;;;;;;5106560;27;20125;-66
2021/07/30 03:08:27;;;;;;;18.52;10.10;;;;;;;;;;5103326;27;20071;-65
2021/07/30 03:10:58;;;;;;;15.90;8.80;;;;;;;;;;5117373;27;20035;-65
2021/07/30 03:13:25;;;;;;;15.77;9.02;;;;;;;;;;5100501;27;20028;-66
2021/07/30 03:15:57;;;;;;;16.13;9.32;;;;;;;;;;5111025;27;20448;-66
2021/07/30 03:18:26;;;;;;;16.48;9.20;;;;;;;;;;5109598;27;20152;-66
2021/07/30 03:20:52;;;;;;;15.23;9.85;;;;;;;;;;5109732;27;20040;-66
2021/07/30 03:23:18;;;;;;;14.70;9.52;;;;;;;;;;5102513;27;20032;-66
2021/07/30 03:25:44;;;;;;;15.70;8.95;;;;;;;;;;5116505;27;20058;-66
2021/07/30 03:28:11;;;;;;;15.85;8.95;;;;;;;;;;5107444;27;20035;-66
2021/07/30 03:30:47;;;;;;;16.38;9.57;;;;;;;;;;5102624;27;20036;-66
2021/07/30 03:33:13;;;;;;;16.25;8.93;;;;;;;;;;5110971;27;20040;-66
2021/07/30 03:35:40;;;;;;;17.27;9.75;;;;;;;;;;5103982;27;20043;-66
2021/07/30 03:38:06;;;;;;;17.23;9.52;;;;;;;;;;5111525;27;20055;-66
2021/07/30 03:40:33;;;;;;;15.57;9.88;;;;;;;;;;5101179;28;20043;-66
2021/07/30 03:42:59;;;;;;;14.65;9.70;;;;;;;;;;5110088;28;20032;-69
2021/07/30 03:45:26;;;;;;;11.65;8.60;;;;;;;;;;5111386;27;20035;-66
2021/07/30 03:47:52;;;;;;;15.27;9.18;;;;;;;;;;5112399;28;20067;-66
2021/07/30 03:50:18;;;;;;;16.20;9.43;;;;;;;;;;5106304;28;20482;-65
2021/07/30 03:52:44;;;;;;;13.50;9.57;;;;;;;;;;5113599;28;20031;-65
2021/07/30 03:55:10;;;;;;;16.13;9.32;;;;;;;;;;5106255;28;20031;-66
2021/07/30 03:57:36;;;;;;;20.27;9.80;;;;;;;;;;5113671;28;20032;-65
2021/07/30 04:00:04;;;;;;;19.00;10.40;;;;;;;;;;5097672;28;20483;-65
2021/07/30 04:02:30;;;;;;;15.30;9.68;;;;;;;;;;5116213;28;20149;-65
2021/07/30 04:04:57;;;;;;;15.88;9.32;;;;;;;;;;5106005;28;20067;-66
2021/07/30 04:07:23;;;;;;;17.42;9.73;;;;;;;;;;5110996;28;20123;-65
2021/07/30 04:09:49;;;;;;;18.10;9.38;;;;;;;;;;5089675;28;20040;-65
2021/07/30 04:12:15;;;;;;;19.23;9.68;;;;;;;;;;5094314;27;20047;-65
2021/07/30 04:14:41;;;;;;;15.23;10.07;;;;;;;;;;5113094;27;20081;-65
2021/07/30 04:17:08;;;;;;;19.55;8.93;;;;;;;;;;5099724;27;20414;-65
2021/07/30 04:19:34;;;;;;;15.68;9.13;;;;;;;;;;5122333;27;20072;-65
2021/07/30 04:22:00;;;;;;;14.57;9.60;;;;;;;;;;5106249;27;20088;-65
2021/07/30 04:24:27;;;;;;;19.95;9.77;;;;;;;;;;5113249;27;20041;-65
2021/07/30 04:26:53;;;;;;;15.63;9.77;;;;;;;;;;5112277;27;20067;-65
2021/07/30 04:29:20;;;;;;;20.70;10.00;;;;;;;;;;5115494;27;20043;-66
2021/07/30 04:31:46;;;;;;;16.52;9.55;;;;;;;;;;5100306;27;20054;-66
2021/07/30 04:34:12;;;;;;;12.27;9.35;;;;;;;;;;5117739;27;20484;-66
2021/07/30 04:36:38;;;;;;;14.73;10.02;;;;;;;;;;5105423;27;20058;-66
2021/07/30 04:39:04;;;;;;;17.42;10.00;;;;;;;;;;5117186;27;20069;-66
2021/07/30 04:41:30;;;;;;;18.98;10.13;;;;;;;;;;5112754;27;20070;-66
2021/07/30 04:43:57;;;;;;;14.68;9.10;;;;;;;;;;5120384;27;20466;-65
2021/07/30 04:46:23;;;;;;;15.80;9.55;;;;;;;;;;5110488;27;20104;-66
2021/07/30 04:48:49;;;;;;;17.13;9.30;;;;;;;;;;5114098;27;20063;-66
2021/07/30 04:51:15;;;;;;;14.82;9.18;;;;;;;;;;5117468;27;20043;-65
2021/07/30 04:53:42;;;;;;;15.40;9.32;;;;;;;;;;5113017;27;20063;-66
2021/07/30 04:56:18;;;;;;;14.27;9.63;;;;;;;;;;5114423;27;20462;-66
2021/07/30 04:58:44;;;;;;;18.38;9.27;;;;;;;;;;5106043;27;20061;-66
2021/07/30 05:01:10;;;;;;;17.80;10.02;;;;;;;;;;5104207;28;20454;-65
2021/07/30 05:03:37;;;;;;;13.45;8.85;;;;;;;;;;5102539;27;20055;-66
2021/07/30 05:06:17;;;;;;;16.52;9.00;;;;;;;;;;5105492;27;20039;-66
2021/07/30 05:08:43;;;;;;;14.98;9.52;;;;;;;;;;5100752;27;20143;-66
2021/07/30 05:11:11;;;;;;;16.75;9.43;;;;;;;;;;5109278;27;20039;-66
2021/07/30 05:13:41;;;;;;;15.23;8.10;;;;;;;;;;5099089;27;20121;-66
2021/07/30 05:16:08;;;;;;;16.95;8.13;;;;;;;;;;5105363;27;20044;-66
2021/07/30 05:18:35;;;;;;;15.88;8.98;;;;;;;;;;5098990;27;20039;-66
2021/07/30 05:21:08;;;;;;;15.88;8.15;;;;;;;;;;5106746;27;20033;-66
2021/07/30 05:23:34;;;;;;;17.10;8.75;;;;;;;;;;5099865;27;20047;-66
2021/07/30 05:26:01;;;;;;;15.65;8.18;;;;;;;;;;5112437;27;20487;-66
2021/07/30 05:28:28;;;;;;;12.75;7.57;;;;;;;;;;5100920;27;20035;-66
2021/07/30 05:30:58;;;;;;;13.38;7.25;;;;;;;;;;5108224;27;20454;-66
2021/07/30 05:33:25;;;;;;;12.15;7.72;;;;;;;;;;5098170;27;20089;-66
2021/07/30 05:35:52;;;;;;;13.20;7.18;;;;;;;;;;5108610;27;20043;-66
2021/07/30 05:38:18;;;;;;;11.95;6.30;;;;;;;;;;5101111;27;20417;-66
2021/07/30 05:40:44;;;;;;;16.55;7.82;;;;;;;;;;5107058;27;20050;-66
2021/07/30 05:43:11;;;;;;;11.32;7.00;;;;;;;;;;5107318;27;20031;-66
2021/07/30 05:45:37;;;;;;;19.40;7.78;;;;;;;;;;5103498;27;20036;-66
2021/07/30 05:48:03;;;;;;;14.45;7.45;;;;;;;;;;5102485;27;20048;-66
2021/07/30 05:50:29;;;;;;;13.85;7.30;;;;;;;;;;5102961;27;20042;-67
2021/07/30 05:52:55;;;;;;;12.23;6.70;;;;;;;;;;5111962;27;20118;-67
2021/07/30 05:55:22;;;;;;;13.27;6.97;;;;;;;;;;5107766;27;20039;-67
2021/07/30 05:57:48;;;;;;;14.25;6.95;;;;;;;;;;5112867;27;20047;-67
2021/07/30 06:00:14;;;;;;;12.63;6.10;;;;;;;;;;5107819;27;20097;-67
2021/07/30 06:02:41;;;;;;;10.82;5.78;;;;;;;;;;5104823;27;20107;-67
2021/07/30 06:05:07;;;;;;;13.52;5.80;;;;;;;;;;5102488;27;20036;-67
2021/07/30 06:07:34;;;;;;;12.30;5.95;;;;;;;;;;5107434;27;20035;-67
2021/07/30 06:10:00;;;;;;;18.33;6.63;;;;;;;;;;5104006;27;20080;-67
2021/07/30 06:12:26;;;;;;;14.98;6.47;;;;;;;;;;5106337;27;20049;-67
2021/07/30 06:14:52;;;;;;;15.35;6.53;;;;;;;;;;5099074;27;20114;-67
2021/07/30 06:17:18;;;;;;;14.10;6.68;;;;;;;;;;5100956;27;20480;-67
2021/07/30 06:19:45;;;;;;;14.18;7.00;;;;;;;;;;5097459;27;20039;-67
2021/07/30 06:22:11;;;;;;;13.38;6.63;;;;;;;;;;5104968;27;20096;-67
2021/07/30 06:24:41;;;;;;;10.30;6.18;;;;;;;;;;5112273;27;20035;-67
2021/07/30 06:27:08;;;;;;;12.32;6.20;;;;;;;;;;5109546;27;20088;-67
2021/07/30 06:29:34;;;;;;;12.57;6.55;;;;;;;;;;5105283;27;20174;-67
2021/07/30 06:32:00;;;;;;;13.82;6.90;;;;;;;;;;5109060;27;20411;-67
2021/07/30 06:34:26;;;;;;;11.40;6.45;;;;;;;;;;5120318;27;20044;-67
2021/07/30 06:36:56;;;;;;;15.82;6.30;;;;;;;;;;5106265;27;20032;-67
2021/07/30 06:39:22;;;;;;;10.10;5.78;;;;;;;;;;5112830;27;20445;-67
2021/07/30 06:41:49;;;;;;;12.23;6.13;;;;;;;;;;5106348;27;20391;-67
2021/07/30 06:44:15;;;;;;;12.43;5.85;;;;;;;;;;5114223;27;20035;-67
2021/07/30 06:46:41;;;;;;;12.70;6.30;;;;;;;;;;5100591;27;20036;-67
2021/07/30 06:49:07;;;;;;;11.75;5.88;;;;;;;;;;5113761;27;20092;-67
2021/07/30 06:51:36;;;;;;;12.85;5.50;;;;;;;;;;5112102;27;20047;-67
2021/07/30 06:54:03;;;;;;;15.13;6.18;;;;;;;;;;5112052;27;20035;-67
2021/07/30 06:56:29;;;;;;;12.25;6.13;;;;;;;;;;5107336;27;20051;-67
2021/07/30 06:58:55;;;;;;;11.00;6.22;;;;;;;;;;5113455;27;20040;-67
2021/07/30 07:01:22;;;;;;;10.60;5.60;;;;;;;;;;5110980;27;20027;-67
2021/07/30 07:03:48;;;;;;;12.43;5.97;;;;;;;;;;5105789;27;20039;-67
2021/07/30 07:06:16;;;;;;;11.13;5.18;;;;;;;;;;5115290;27;20084;-67
2021/07/30 07:08:42;;;;;;;11.60;5.80;;;;;;;;;;5095000;27;20035;-67
2021/07/30 07:11:09;;;;;;;8.77;5.10;;;;;;;;;;5111828;27;20086;-67
2021/07/30 07:13:35;;;;;;;15.15;5.68;;;;;;;;;;5106705;27;20434;-68
2021/07/30 07:16:01;;;;;;;13.27;6.15;;;;;;;;;;5108789;27;20396;-68
2021/07/30 07:18:27;;;;;;;13.13;5.80;;;;;;;;;;5101222;27;20042;-68
2021/07/30 07:20:57;;;;;;;12.35;5.90;;;;;;;;;;5103665;27;20044;-68
2021/07/30 07:23:23;;;;;;;10.13;5.20;;;;;;;;;;5099476;27;20050;-68
2021/07/30 07:25:49;;;;;;;11.88;5.18;;;;;;;;;;5107359;28;20471;-68
2021/07/30 07:28:15;;;;;;;11.20;5.18;;;;;;;;;;5106278;27;20398;-68
2021/07/30 07:30:41;;;;;;;10.50;5.57;;;;;;;;;;5110690;27;20437;-68
2021/07/30 07:33:07;;;;;;;13.57;5.40;;;;;;;;;;5107948;27;20458;-68
2021/07/30 07:35:34;;;;;;;11.15;5.38;;;;;;;;;;5110768;27;20184;-68
2021/07/30 07:38:03;;;;;;;9.60;5.00;;;;;;;;;;5103162;27;20039;-69
2021/07/30 07:40:30;;;;;;;11.40;4.72;;;;;;;;;;5112083;28;20068;-69
2021/07/30 07:42:57;;;;;;;10.25;5.47;;;;;;;;;;5110003;27;20093;-68
2021/07/30 07:45:23;;;;;;;11.85;4.95;;;;;;;;;;5114254;27;20042;-68
2021/07/30 07:47:49;;;;;;;10.07;5.32;;;;;;;;;;5109071;28;20047;-68
2021/07/30 07:50:15;;;;;;;9.00;4.75;;;;;;;;;;5098696;28;20175;-68
2021/07/30 07:52:42;;;;;;;9.93;4.63;;;;;;;;;;5114308;28;20100;-69
2021/07/30 07:55:11;;;;;;;13.15;5.65;;;;;;;;;;5110390;28;20160;-66
2021/07/30 07:57:41;;;;;;;10.75;4.57;;;;;;;;;;5110812;28;20050;-66
2021/07/30 08:00:08;;;;;;;10.35;4.30;;;;;;;;;;5105315;28;20042;-66
2021/07/30 08:02:34;;;;;;;10.38;4.60;;;;;;;;;;5111203;28;20388;-66
2021/07/30 08:05:00;;;;;;;13.07;4.90;;;;;;;;;;5105701;28;20054;-67
2021/07/30 08:07:26;;;;;;;11.48;4.75;;;;;;;;;;5109716;28;20040;-67
2021/07/30 08:09:53;;;;;;;12.23;4.90;;;;;;;;;;5108864;28;20496;-67
2021/07/30 08:12:19;;;;;;;11.15;5.07;;;;;;;;;;5115179;28;20059;-67
2021/07/30 08:14:46;;;;;;;11.07;4.95;;;;;;;;;;5094760;28;20437;-68
2021/07/30 08:17:12;;;;;;;8.30;4.20;;;;;;;;;;5109971;28;20445;-68
2021/07/30 08:19:39;;;;;;;11.50;4.85;;;;;;;;;;5106653;28;20562;-68
2021/07/30 08:22:06;;;;;;;10.32;4.43;;;;;;;;;;5113447;28;20799;-64
2021/07/30 08:24:32;;;;;;;9.25;4.20;;;;;;;;;;5106274;28;20161;-65
2021/07/30 08:26:58;;;;;;;11.60;4.60;;;;;;;;;;5077742;28;20695;-71
2021/07/30 08:29:24;;;;;;;13.98;5.10;;;;;;;;;;5081130;28;20055;-66
2021/07/30 08:31:50;;;;;;;15.68;5.15;;;;;;;;;;5103340;28;20101;-70
2021/07/30 08:34:17;;;;;;;9.23;4.50;;;;;;;;;;5110822;28;20127;-67
2021/07/30 08:36:43;;;;;;;9.82;4.60;;;;;;;;;;5110348;28;20048;-70
2021/07/30 08:39:09;;;;;;;10.85;4.63;;;;;;;;;;5110401;28;20486;-68
2021/07/30 08:41:36;;;;;;;11.50;4.70;;;;;;;;;;5110191;28;20055;-68
2021/07/30 08:44:02;;;;;;;11.73;4.88;;;;;;;;;;5110825;28;20517;-68
2021/07/30 08:46:31;;;;;;;9.10;3.83;;;;;;;;;;5106560;28;20139;-69
2021/07/30 08:48:57;;;;;;;9.07;4.40;;;;;;;;;;5112097;28;20054;-68
2021/07/30 08:51:25;;;;;;;11.52;4.43;;;;;;;;;;5101289;28;20122;-68
2021/07/30 08:53:51;;;;;;;8.55;3.60;;;;;;;;;;5116838;28;20132;-67
2021/07/30 08:56:18;;;;;;;9.18;3.97;;;;;;;;;;5108441;27;20114;-68
2021/07/30 08:58:44;;;;;;;9.68;3.63;;;;;;;;;;5112504;27;20055;-68
2021/07/30 09:01:11;;;;;;;10.77;4.40;;;;;;;;;;5110608;27;20051;-67
2021/07/30 09:03:41;;;;;;;8.20;4.22;;;;;;;;;;5124946;27;20527;-68
2021/07/30 09:06:21;;;;;;;7.30;3.63;;;;;;;;;;5115820;27;20044;-69
2021/07/30 09:08:56;;;;;;;6.50;3.80;;;;;;;;;;5111107;27;20395;-71
2021/07/30 09:11:29;;;;;;;8.57;3.95;;;;;;;;;;5111687;27;20550;-71
2021/07/30 09:13:56;;;;;;;8.40;3.70;;;;;;;;;;5114070;27;20460;-71
2021/07/30 09:16:22;;;;;;;9.32;3.92;;;;;;;;;;5117571;27;20291;-72
2021/07/30 09:18:48;;;;;;;10.30;4.20;;;;;;;;;;5082814;27;20085;-72
2021/07/30 09:21:16;;;;;;;7.70;3.50;;;;;;;;;;5117502;27;20043;-72
2021/07/30 09:23:52;;;;;;;8.70;4.00;;;;;;;;;;5109557;27;20047;-71
2021/07/30 09:26:28;;;;;;;11.27;5.03;;;;;;;;;;5120155;27;20074;-71
2021/07/30 09:28:58;;;;;;;9.00;4.63;;;;;;;;;;5106813;27;20518;-68
2021/07/30 09:31:39;;;;;;;10.95;4.25;;;;;;;;;;5114653;27;20044;-68
2021/07/30 09:34:15;;;;;;;10.98;4.78;;;;;;;;;;5109650;27;20048;-68
2021/07/30 09:36:45;;;;;;;9.95;4.57;;;;;;;;;;5116691;27;20161;-68
2021/07/30 09:39:12;;;;;;;7.85;4.28;;;;;;;;;;5109918;27;20039;-68
2021/07/30 09:41:38;;;;;;;11.32;4.80;;;;;;;;;;5115609;27;20039;-68
2021/07/30 09:44:05;;;;;;;8.32;4.22;;;;;;;;;;5109330;27;20119;-68
2021/07/30 09:46:31;;;;;;;8.63;4.60;;;;;;;;;;5122671;27;20486;-68
2021/07/30 09:48:57;;;;;;;6.28;3.75;;;;;;;;;;5102988;27;20138;-68
2021/07/30 09:51:23;;;;;;;8.27;3.97;;;;;;;;;;5116809;27;20090;-68
2021/07/30 09:53:51;;;;;;;8.38;4.25;;;;;;;;;;5109201;27;20063;-68
2021/07/30 09:56:17;;;;;;;7.80;4.07;;;;;;;;;;5117204;27;20111;-68
2021/07/30 09:58:44;;;;;;;7.10;4.05;;;;;;;;;;5104775;27;20043;-71
2021/07/30 10:01:21;;;;;;;7.75;3.75;;;;;;;;;;5086679;28;20492;-67
2021/07/30 10:03:47;;;;;;;7.85;3.55;;;;;;;;;;5111675;27;20050;-67
2021/07/30 10:06:14;;;;;;;7.63;3.75;;;;;;;;;;5115706;27;20066;-67
2021/07/30 10:08:41;;;;;;;7.38;3.40;;;;;;;;;;5108147;27;20475;-67
2021/07/30 10:11:12;;;;;;;6.22;3.08;;;;;;;;;;5114627;27;20039;-67
2021/07/30 10:13:46;;;;;;;10.60;3.25;;;;;;;;;;5114574;27;20043;-67
2021/07/30 10:16:13;;;;;;;7.13;3.28;;;;;;;;;;5109664;27;20071;-67
2021/07/30 10:18:40;;;;;;;7.68;3.13;;;;;;;;;;5114705;27;20075;-67
2021/07/30 10:21:06;;;;;;;6.55;2.65;;;;;;;;;;5111528;27;20038;-67
2021/07/30 10:23:38;;;;;;;6.25;2.97;;;;;;;;;;5118684;27;20035;-67
2021/07/30 10:26:05;;;;;;;8.38;2.80;;;;;;;;;;5104969;27;20118;-67
2021/07/30 10:28:33;;;;;;;6.03;2.67;;;;;;;;;;5116579;27;20447;-67
2021/07/30 10:31:01;;;;;;;6.20;3.22;;;;;;;;;;5109148;27;20063;-67
2021/07/30 10:33:31;;;;;;;8.23;3.33;;;;;;;;;;5116312;27;20171;-67
2021/07/30 10:35:57;;;;;;;8.65;2.85;;;;;;;;;;5108225;27;20036;-67
2021/07/30 10:38:24;;;;;;;7.63;2.90;;;;;;;;;;5112193;27;20534;-67
2021/07/30 10:40:56;;;;;;;8.63;3.42;;;;;;;;;;5109089;27;20043;-67
2021/07/30 10:43:23;;;;;;;7.80;3.28;;;;;;;;;;5112347;27;20522;-67
2021/07/30 10:46:05;;;;;;;7.43;3.30;;;;;;;;;;5104964;27;20479;-68
2021/07/30 10:48:31;;;;;;;6.93;2.80;;;;;;;;;;5116497;27;20127;-67
2021/07/30 10:51:01;;;;;;;8.32;3.40;;;;;;;;;;5111535;27;20092;-67
2021/07/30 10:53:37;;;;;;;10.15;3.30;;;;;;;;;;5111627;27;20044;-67
2021/07/30 10:56:07;;;;;;;6.40;2.72;;;;;;;;;;5106282;27;20039;-67
2021/07/30 10:58:45;;;;;;;7.88;2.67;;;;;;;;;;5120029;27;20498;-67
2021/07/30 11:01:11;;;;;;;7.80;2.33;;;;;;;;;;5106146;27;20035;-67
2021/07/30 11:03:52;;;;;;;8.02;2.60;;;;;;;;;;5112077;27;20133;-67
2021/07/30 11:06:19;;;;;;;6.45;2.40;;;;;;;;;;5102192;27;20066;-67
2021/07/30 11:09:01;;;;;;;5.57;2.38;;;;;;;;;;5110975;27;20297;-67
2021/07/30 11:11:41;;;;;;;5.70;2.33;;;;;;;;;;5110505;27;20354;-67
2021/07/30 11:14:13;;;;;;;4.60;1.73;;;;;;;;;;5115640;27;20031;-67
2021/07/30 11:16:40;;;;;;;7.80;2.33;;;;;;;;;;5105346;27;20040;-67
2021/07/30 11:19:06;;;;;;;4.82;2.13;;;;;;;;;;5112560;27;20056;-67
2021/07/30 11:21:33;;;;;;;7.22;2.38;;;;;;;;;;5109514;27;20513;-67
2021/07/30 11:23:59;;;;;;;7.07;1.85;;;;;;;;;;5112943;27;20040;-67
2021/07/30 11:26:26;;;;;;;5.38;2.03;;;;;;;;;;5112073;27;20660;-68
2021/07/30 11:28:53;;;;;;;4.70;1.70;;;;;;;;;;5106994;27;20052;-68
2021/07/30 11:31:19;;;;;;;5.32;1.60;;;;;;;;;;5116011;27;20040;-67
2021/07/30 11:33:45;;;;;;;3.97;1.45;;;;;;;;;;5098930;27;20040;-68
2021/07/30 11:36:15;;;;;;;5.93;1.70;;;;;;;;;;5103082;28;20475;-68
2021/07/30 11:39:10;;;;;;;6.82;1.90;;;;;;;;;;5103113;27;20057;-68
2021/07/30 11:41:46;;;;;;;6.53;1.80;;;;;;;;;;5099996;28;20046;-67
2021/07/30 11:44:12;;;;;;;4.75;1.92;;;;;;;;;;5105286;28;20122;-67
2021/07/30 11:46:38;;;;;;;7.00;2.35;;;;;;;;;;5109257;27;20099;-67
2021/07/30 11:49:07;;;;;;;4.53;2.10;;;;;;;;;;5100002;28;20062;-67
2021/07/30 11:51:38;;;;;;;7.82;2.05;;;;;;;;;;5113181;28;20095;-67
2021/07/30 11:54:04;;;;;;;4.97;2.03;;;;;;;;;;5104936;28;20045;-67
2021/07/30 11:56:42;;;;;;;6.60;2.10;;;;;;;;;;5108904;28;20066;-67
2021/07/30 11:59:08;;;;;;;4.50;2.00;;;;;;;;;;5089724;28;20173;-67
2021/07/30 12:01:34;;;;;;;5.80;2.03;;;;;;;;;;5115606;28;20051;-67
2021/07/30 12:04:10;;;;;;;4.18;1.48;;;;;;;;;;5101549;28;20488;-67
2021/07/30 12:06:43;;;;;;;5.50;2.47;;;;;;;;;;5101857;28;20475;-67
2021/07/30 12:09:10;;;;;;;6.20;2.10;;;;;;;;;;5106531;28;20480;-68
2021/07/30 12:11:38;;;;;;;5.03;1.73;;;;;;;;;;5116208;28;20046;-67
2021/07/30 12:14:05;;;;;;;4.88;1.80;;;;;;;;;;5105816;28;20122;-67
2021/07/30 12:16:32;;;;;;;4.03;1.40;;;;;;;;;;5112095;28;20058;-67
2021/07/30 12:18:58;;;;;;;5.68;1.65;;;;;;;;;;5103310;28;20118;-67
2021/07/30 12:21:24;;;;;;;4.10;1.73;;;;;;;;;;5117412;28;20040;-67
2021/07/30 12:23:51;;;;;;;5.45;1.75;;;;;;;;;;5105140;28;20552;-67
2021/07/30 12:26:33;;;;;;;4.53;1.75;;;;;;;;;;5112114;28;20036;-67
2021/07/30 12:28:59;;;;;;;4.78;1.48;;;;;;;;;;5108972;28;20054;-67
2021/07/30 12:31:25;;;;;;;4.28;1.58;;;;;;;;;;5115606;27;20043;-67
2021/07/30 12:34:11;;;;;;;5.00;1.60;;;;;;;;;;5113969;27;20471;-67
2021/07/30 12:36:37;;;;;;;4.50;1.75;;;;;;;;;;5106913;27;20039;-67
2021/07/30 12:39:05;;;;;;;7.10;1.70;;;;;;;;;;5112244;27;20059;-67
2021/07/30 12:41:33;;;;;;;5.35;2.08;;;;;;;;;;5102341;27;20035;-67
2021/07/30 12:44:09;;;;;;;5.15;1.55;;;;;;;;;;5111312;27;20039;-67
2021/07/30 12:46:36;;;;;;;6.35;1.70;;;;;;;;;;5100517;27;20070;-67
2021/07/30 12:49:07;;;;;;;3.63;1.73;;;;;;;;;;5117867;27;20487;-67
2021/07/30 12:51:34;;;;;;;5.43;1.73;;;;;;;;;;5106863;27;20039;-67
2021/07/30 12:54:07;;;;;;;4.97;2.20;;;;;;;;;;5114165;27;20027;-67
2021/07/30 12:56:52;;;;;;;7.25;2.22;;;;;;;;;;5104563;27;20047;-67
2021/07/30 12:59:18;;;;;;;8.07;2.10;;;;;;;;;;5113866;27;20054;-67
2021/07/30 13:01:44;;;;;;;4.55;1.95;;;;;;;;;;5106589;27;20035;-67
2021/07/30 13:04:12;;;;;;;5.35;2.13;;;;;;;;;;5111667;27;20573;-67
2021/07/30 13:06:41;;;;;;;5.50;2.35;;;;;;;;;;5110847;27;20066;-68
2021/07/30 13:09:07;;;;;;;5.00;1.80;;;;;;;;;;5109669;27;20411;-67
2021/07/30 13:11:34;;;;;;;4.00;1.98;;;;;;;;;;5099768;27;20499;-69
2021/07/30 13:14:00;;;;;;;2.85;1.75;;;;;;;;;;5118154;27;20038;-68
2021/07/30 13:16:26;;;;;;;5.53;2.08;;;;;;;;;;5107034;27;20484;-68
2021/07/30 13:18:52;;;;;;;4.55;2.58;;;;;;;;;;5110858;27;20042;-68
2021/07/30 13:21:19;;;;;;;6.90;2.13;;;;;;;;;;5110923;27;20430;-69
2021/07/30 13:23:45;;;;;;;8.60;2.17;;;;;;;;;;5116345;27;20475;-69
2021/07/30 13:26:11;;;;;;;4.57;2.22;;;;;;;;;;5108948;27;20039;-69
2021/07/30 13:28:37;;;;;;;6.22;2.33;;;;;;;;;;5104927;27;20059;-69
2021/07/30 13:31:03;;;;;;;5.35;2.30;;;;;;;;;;5110359;27;20166;-68
2021/07/30 13:33:29;;;;;;;6.93;2.80;;;;;;;;;;5110440;27;20027;-68
2021/07/30 13:35:56;;;;;;;6.30;2.58;;;;;;;;;;5104984;27;20042;-68
2021/07/30 13:38:22;;;;;;;7.47;2.63;;;;;;;;;;5107087;27;20040;-68
2021/07/30 13:40:48;;;;;;;5.78;2.80;;;;;;;;;;5113466;27;20049;-68
2021/07/30 13:43:15;;;;;;;4.97;2.65;;;;;;;;;;5103077;27;20069;-69
2021/07/30 13:45:44;;;;;;;8.45;2.65;;;;;;;;;;5101419;27;20450;-69
2021/07/30 13:48:10;;;;;;;8.30;2.63;;;;;;;;;;5104892;27;20768;-69
2021/07/30 13:50:36;;;;;;;8.98;2.63;;;;;;;;;;5113418;27;20505;-68
2021/07/30 13:53:02;;;;;;;7.68;2.85;;;;;;;;;;5106078;27;20106;-69
2021/07/30 13:55:29;;;;;;;5.57;2.30;;;;;;;;;;5113683;27;20043;-69
2021/07/30 13:57:55;;;;;;;5.40;2.28;;;;;;;;;;5112486;27;20081;-69
2021/07/30 14:00:21;;;;;;;7.80;2.45;;;;;;;;;;5112906;27;20070;-69
2021/07/30 14:02:47;;;;;;;4.80;2.13;;;;;;;;;;5103146;27;20039;-69
2021/07/30 14:05:14;;;;;;;4.30;2.42;;;;;;;;;;5118960;27;20039;-78
2021/07/30 14:07:44;;;;;;;5.10;2.85;;;;;;;;;;5130285;27;20039;-70
2021/07/30 14:10:11;;;;;;;5.93;2.58;;;;;;;;;;5119713;27;20032;-70
2021/07/30 14:12:37;;;;;;;4.43;2.22;;;;;;;;;;5129098;27;20043;-69
2021/07/30 14:15:15;;;;;;;6.13;3.22;;;;;;;;;;5118353;27;20040;-69
2021/07/30 14:17:41;;;;;;;4.80;2.72;;;;;;;;;;5131123;27;20474;-69
2021/07/30 14:20:08;;;;;;;5.20;2.60;;;;;;;;;;5112890;27;20027;-69
2021/07/30 14:22:35;;;;;;;7.03;2.75;;;;;;;;;;5107868;27;20043;-69
2021/07/30 14:25:01;;;;;;;6.60;2.70;;;;;;;;;;5110200;27;20035;-69
2021/07/30 14:27:27;;;;;;;3.40;2.42;;;;;;;;;;5108404;27;20042;-69
2021/07/30 14:29:54;;;;;;;6.85;3.30;;;;;;;;;;5106162;27;20140;-69
2021/07/30 14:32:20;;;;;;;4.80;3.00;;;;;;;;;;5115673;27;20039;-69
2021/07/30 14:34:46;;;;;;;5.60;3.28;;;;;;;;;;5111497;27;20039;-69
2021/07/30 14:37:12;;;;;;;4.10;3.03;;;;;;;;;;5106270;27;20083;-68